sensor_id;sensor_type;location;lat;lon;timestamp;temperature;humidity
33594;DHT22;19920;52.242;20.940;2022-11-20T00:00:56;-2.20;99.90
33594;DHT22;19920;52.242;20.940;2022-11-20T00:03:22;-2.20;99.90
33594;DHT22;19920;52.242;20.940;2022-11-20T00:05:48;-2.30;99.90
33594;DHT22;19920;52.242;20.940;2022-11-20T00:08:13;-2.30;99.90
33594;DHT22;19920;52.242;20.940;2022-11-20T00:10:40;-2.40;99.90
33594;DHT22;19920;52.242;20.940;2022-11-20T00:13:07;-2.30;99.90
33594;DHT22;19920;52.242;20.940;2022-11-20T00:15:33;-2.40;99.90
33594;DHT22;19920;52.242;20.940;2022-11-20T00:17:59;-2.50;99.90
33594;DHT22;19920;52.242;20.940;2022-11-20T00:20:24;-2.40;99.90
33594;DHT22;19920;52.242;20.940;2022-11-20T00:22:50;-2.50;99.90
33594;DHT22;19920;52.242;20.940;2022-11-20T00:25:16;-2.30;99.90
33594;DHT22;19920;52.242;20.940;2022-11-20T00:27:42;-2.30;99.90
33594;DHT22;19920;52.242;20.940;2022-11-20T00:30:08;-2.20;99.90
33594;DHT22;19920;52.242;20.940;2022-11-20T00:32:34;-2.10;99.90
33594;DHT22;19920;52.242;20.940;2022-11-20T00:34:59;-2.10;99.90
33594;DHT22;19920;52.242;20.940;2022-11-20T00:37:25;-2.10;99.90
33594;DHT22;19920;52.242;20.940;2022-11-20T00:39:51;-2.00;99.90
33594;DHT22;19920;52.242;20.940;2022-11-20T00:42:17;-2.00;99.90
33594;DHT22;19920;52.242;20.940;2022-11-20T00:44:42;-1.90;99.90
33594;DHT22;19920;52.242;20.940;2022-11-20T00:47:08;-1.90;99.90
33594;DHT22;19920;52.242;20.940;2022-11-20T00:49:34;-1.80;99.90
33594;DHT22;19920;52.242;20.940;2022-11-20T00:51:59;-1.90;99.90
33594;DHT22;19920;52.242;20.940;2022-11-20T00:54:25;-1.90;99.90
33594;DHT22;19920;52.242;20.940;2022-11-20T00:56:53;-1.90;99.90
33594;DHT22;19920;52.242;20.940;2022-11-20T00:59:18;-2.00;99.90
33594;DHT22;19920;52.242;20.940;2022-11-20T01:01:44;-1.80;99.90
33594;DHT22;19920;52.242;20.940;2022-11-20T01:04:10;-1.90;99.90
33594;DHT22;19920;52.242;20.940;2022-11-20T01:06:37;-1.80;99.90
33594;DHT22;19920;52.242;20.940;2022-11-20T01:09:09;-1.80;99.90
33594;DHT22;19920;52.242;20.940;2022-11-20T01:11:37;-1.80;99.90
33594;DHT22;19920;52.242;20.940;2022-11-20T01:14:07;-1.80;99.90
33594;DHT22;19920;52.242;20.940;2022-11-20T01:16:35;-1.90;99.90
33594;DHT22;19920;52.242;20.940;2022-11-20T01:19:03;-1.80;99.90
33594;DHT22;19920;52.242;20.940;2022-11-20T01:21:31;-1.80;99.90
33594;DHT22;19920;52.242;20.940;2022-11-20T01:23:58;-1.80;99.90
33594;DHT22;19920;52.242;20.940;2022-11-20T01:26:27;-1.80;99.90
33594;DHT22;19920;52.242;20.940;2022-11-20T01:28:54;-1.80;99.90
33594;DHT22;19920;52.242;20.940;2022-11-20T01:31:24;-1.90;99.90
33594;DHT22;19920;52.242;20.940;2022-11-20T01:33:51;-1.70;99.90
33594;DHT22;19920;52.242;20.940;2022-11-20T01:36:19;-1.80;99.90
33594;DHT22;19920;52.242;20.940;2022-11-20T01:38:45;-1.70;99.90
33594;DHT22;19920;52.242;20.940;2022-11-20T01:41:11;-1.80;99.90
33594;DHT22;19920;52.242;20.940;2022-11-20T01:43:58;-1.70;99.90
33594;DHT22;19920;52.242;20.940;2022-11-20T01:46:24;-1.70;99.90
33594;DHT22;19920;52.242;20.940;2022-11-20T01:49:22;-1.70;99.90
33594;DHT22;19920;52.242;20.940;2022-11-20T01:51:52;-1.80;99.90
33594;DHT22;19920;52.242;20.940;2022-11-20T01:54:31;-1.80;99.90
33594;DHT22;19920;52.242;20.940;2022-11-20T01:56:59;-1.70;99.90
33594;DHT22;19920;52.242;20.940;2022-11-20T01:59:26;-1.70;99.90
33594;DHT22;19920;52.242;20.940;2022-11-20T02:01:53;-1.80;99.90
33594;DHT22;19920;52.242;20.940;2022-11-20T02:04:19;-1.80;99.90
33594;DHT22;19920;52.242;20.940;2022-11-20T02:06:47;-1.90;99.90
33594;DHT22;19920;52.242;20.940;2022-11-20T02:09:15;-1.80;99.90
33594;DHT22;19920;52.242;20.940;2022-11-20T02:11:40;-1.80;99.90
33594;DHT22;19920;52.242;20.940;2022-11-20T02:14:07;-1.80;99.90
33594;DHT22;19920;52.242;20.940;2022-11-20T02:16:40;-2.00;99.90
33594;DHT22;19920;52.242;20.940;2022-11-20T02:19:17;-1.80;99.90
33594;DHT22;19920;52.242;20.940;2022-11-20T02:22:13;-1.80;99.90
33594;DHT22;19920;52.242;20.940;2022-11-20T02:24:36;-1.80;99.90
33594;DHT22;19920;52.242;20.940;2022-11-20T02:27:06;-1.90;99.90
33594;DHT22;19920;52.242;20.940;2022-11-20T02:29:41;-1.90;99.90
33594;DHT22;19920;52.242;20.940;2022-11-20T02:32:28;-1.90;99.90
33594;DHT22;19920;52.242;20.940;2022-11-20T02:34:54;-1.90;99.90
33594;DHT22;19920;52.242;20.940;2022-11-20T02:37:20;-2.00;99.90
33594;DHT22;19920;52.242;20.940;2022-11-20T02:39:49;-1.90;99.90
33594;DHT22;19920;52.242;20.940;2022-11-20T02:42:15;-2.00;99.90
33594;DHT22;19920;52.242;20.940;2022-11-20T02:44:41;-2.00;99.90
33594;DHT22;19920;52.242;20.940;2022-11-20T02:47:06;-2.10;99.90
33594;DHT22;19920;52.242;20.940;2022-11-20T02:49:32;-2.00;99.90
33594;DHT22;19920;52.242;20.940;2022-11-20T02:51:58;-2.00;99.90
33594;DHT22;19920;52.242;20.940;2022-11-20T02:54:24;-1.90;99.90
33594;DHT22;19920;52.242;20.940;2022-11-20T02:56:50;-2.00;99.90
33594;DHT22;19920;52.242;20.940;2022-11-20T02:59:15;-2.00;99.90
33594;DHT22;19920;52.242;20.940;2022-11-20T03:01:41;-2.00;99.90
33594;DHT22;19920;52.242;20.940;2022-11-20T03:04:07;-2.10;99.90
33594;DHT22;19920;52.242;20.940;2022-11-20T03:06:32;-2.20;99.90
33594;DHT22;19920;52.242;20.940;2022-11-20T03:08:58;-2.10;99.90
33594;DHT22;19920;52.242;20.940;2022-11-20T03:11:24;-2.20;99.90
33594;DHT22;19920;52.242;20.940;2022-11-20T03:13:49;-2.20;99.90
33594;DHT22;19920;52.242;20.940;2022-11-20T03:16:19;-2.20;99.90
33594;DHT22;19920;52.242;20.940;2022-11-20T03:18:45;-2.20;99.90
33594;DHT22;19920;52.242;20.940;2022-11-20T03:21:12;-2.20;99.90
33594;DHT22;19920;52.242;20.940;2022-11-20T03:23:38;-2.30;99.90
33594;DHT22;19920;52.242;20.940;2022-11-20T03:28:42;-2.20;99.90
33594;DHT22;19920;52.242;20.940;2022-11-20T03:31:13;-2.40;99.90
33594;DHT22;19920;52.242;20.940;2022-11-20T03:33:40;-2.40;99.90
33594;DHT22;19920;52.242;20.940;2022-11-20T03:36:08;-2.40;99.90
33594;DHT22;19920;52.242;20.940;2022-11-20T03:38:35;-2.30;99.90
33594;DHT22;19920;52.242;20.940;2022-11-20T03:41:04;-2.20;99.90
33594;DHT22;19920;52.242;20.940;2022-11-20T03:43:29;-2.40;99.90
33594;DHT22;19920;52.242;20.940;2022-11-20T03:45:55;-2.40;99.90
33594;DHT22;19920;52.242;20.940;2022-11-20T03:48:21;-2.30;99.90
33594;DHT22;19920;52.242;20.940;2022-11-20T03:50:47;-2.30;99.90
33594;DHT22;19920;52.242;20.940;2022-11-20T03:53:14;-2.30;99.90
33594;DHT22;19920;52.242;20.940;2022-11-20T03:55:39;-2.30;99.90
33594;DHT22;19920;52.242;20.940;2022-11-20T03:58:05;-2.40;99.90
33594;DHT22;19920;52.242;20.940;2022-11-20T04:00:31;-2.40;99.90
33594;DHT22;19920;52.242;20.940;2022-11-20T04:03:00;-2.50;99.90
33594;DHT22;19920;52.242;20.940;2022-11-20T04:05:25;-2.50;99.90
33594;DHT22;19920;52.242;20.940;2022-11-20T04:07:51;-2.50;99.90
33594;DHT22;19920;52.242;20.940;2022-11-20T04:10:17;-2.50;99.90
33594;DHT22;19920;52.242;20.940;2022-11-20T04:12:43;-2.50;99.90
33594;DHT22;19920;52.242;20.940;2022-11-20T04:15:09;-2.60;99.90
33594;DHT22;19920;52.242;20.940;2022-11-20T04:17:34;-2.60;99.90
33594;DHT22;19920;52.242;20.940;2022-11-20T04:20:00;-2.60;99.90
33594;DHT22;19920;52.242;20.940;2022-11-20T04:22:26;-2.50;99.90
33594;DHT22;19920;52.242;20.940;2022-11-20T04:24:52;-2.50;99.90
33594;DHT22;19920;52.242;20.940;2022-11-20T04:27:18;-2.50;99.90
33594;DHT22;19920;52.242;20.940;2022-11-20T04:29:43;-2.60;99.90
33594;DHT22;19920;52.242;20.940;2022-11-20T04:32:09;-2.60;99.90
33594;DHT22;19920;52.242;20.940;2022-11-20T04:34:35;-2.70;99.90
33594;DHT22;19920;52.242;20.940;2022-11-20T04:37:01;-2.70;99.90
33594;DHT22;19920;52.242;20.940;2022-11-20T04:39:26;-2.70;99.90
33594;DHT22;19920;52.242;20.940;2022-11-20T04:41:52;-2.70;99.90
33594;DHT22;19920;52.242;20.940;2022-11-20T04:44:37;-2.60;99.90
33594;DHT22;19920;52.242;20.940;2022-11-20T04:47:03;-2.70;99.90
33594;DHT22;19920;52.242;20.940;2022-11-20T04:49:29;-2.70;99.90
33594;DHT22;19920;52.242;20.940;2022-11-20T04:51:55;-2.70;99.90
33594;DHT22;19920;52.242;20.940;2022-11-20T04:54:20;-2.80;99.90
33594;DHT22;19920;52.242;20.940;2022-11-20T04:56:50;-2.80;99.90
33594;DHT22;19920;52.242;20.940;2022-11-20T04:59:16;-2.80;99.90
33594;DHT22;19920;52.242;20.940;2022-11-20T05:01:41;-2.80;99.90
33594;DHT22;19920;52.242;20.940;2022-11-20T05:04:07;-3.00;99.90
33594;DHT22;19920;52.242;20.940;2022-11-20T05:06:33;-3.10;99.90
33594;DHT22;19920;52.242;20.940;2022-11-20T05:08:59;-3.10;99.90
33594;DHT22;19920;52.242;20.940;2022-11-20T05:11:26;-3.10;99.90
33594;DHT22;19920;52.242;20.940;2022-11-20T05:13:54;-3.10;99.90
33594;DHT22;19920;52.242;20.940;2022-11-20T05:16:23;-3.10;99.90
33594;DHT22;19920;52.242;20.940;2022-11-20T05:18:50;-3.10;99.90
33594;DHT22;19920;52.242;20.940;2022-11-20T05:21:16;-3.10;99.90
33594;DHT22;19920;52.242;20.940;2022-11-20T05:23:43;-3.10;99.90
33594;DHT22;19920;52.242;20.940;2022-11-20T05:26:13;-3.20;99.90
33594;DHT22;19920;52.242;20.940;2022-11-20T05:28:39;-3.20;99.90
33594;DHT22;19920;52.242;20.940;2022-11-20T05:31:11;-3.30;99.90
33594;DHT22;19920;52.242;20.940;2022-11-20T05:33:40;-3.20;99.90
33594;DHT22;19920;52.242;20.940;2022-11-20T05:36:06;-3.20;99.90
33594;DHT22;19920;52.242;20.940;2022-11-20T05:38:32;-3.20;99.90
33594;DHT22;19920;52.242;20.940;2022-11-20T05:41:12;-3.30;99.90
33594;DHT22;19920;52.242;20.940;2022-11-20T05:43:40;-3.20;99.90
33594;DHT22;19920;52.242;20.940;2022-11-20T05:46:07;-3.40;99.90
33594;DHT22;19920;52.242;20.940;2022-11-20T05:48:34;-3.50;99.90
33594;DHT22;19920;52.242;20.940;2022-11-20T05:51:02;-3.40;99.90
33594;DHT22;19920;52.242;20.940;2022-11-20T05:53:28;-3.40;99.90
33594;DHT22;19920;52.242;20.940;2022-11-20T05:58:30;-3.30;99.90
33594;DHT22;19920;52.242;20.940;2022-11-20T06:01:22;-3.30;99.90
33594;DHT22;19920;52.242;20.940;2022-11-20T06:03:48;-3.30;99.90
33594;DHT22;19920;52.242;20.940;2022-11-20T06:06:16;-3.40;99.90
33594;DHT22;19920;52.242;20.940;2022-11-20T06:08:43;-3.30;99.90
33594;DHT22;19920;52.242;20.940;2022-11-20T06:11:11;-3.30;99.90
33594;DHT22;19920;52.242;20.940;2022-11-20T06:13:37;-3.40;99.90
33594;DHT22;19920;52.242;20.940;2022-11-20T06:16:03;-3.40;99.90
33594;DHT22;19920;52.242;20.940;2022-11-20T06:18:29;-3.40;99.90
33594;DHT22;19920;52.242;20.940;2022-11-20T06:21:10;-3.40;99.90
33594;DHT22;19920;52.242;20.940;2022-11-20T06:23:36;-3.40;99.90
33594;DHT22;19920;52.242;20.940;2022-11-20T06:26:10;-3.40;99.90
33594;DHT22;19920;52.242;20.940;2022-11-20T06:28:36;-3.40;99.90
33594;DHT22;19920;52.242;20.940;2022-11-20T06:31:02;-3.40;99.90
33594;DHT22;19920;52.242;20.940;2022-11-20T06:33:28;-3.30;99.90
33594;DHT22;19920;52.242;20.940;2022-11-20T06:35:59;-3.40;99.90
33594;DHT22;19920;52.242;20.940;2022-11-20T06:38:26;-3.40;99.90
33594;DHT22;19920;52.242;20.940;2022-11-20T06:40:53;-3.40;99.90
33594;DHT22;19920;52.242;20.940;2022-11-20T06:43:18;-3.40;99.90
33594;DHT22;19920;52.242;20.940;2022-11-20T06:45:44;-3.30;99.90
33594;DHT22;19920;52.242;20.940;2022-11-20T06:48:10;-3.20;99.90
33594;DHT22;19920;52.242;20.940;2022-11-20T06:50:38;-3.20;99.90
33594;DHT22;19920;52.242;20.940;2022-11-20T06:53:05;-3.20;99.90
33594;DHT22;19920;52.242;20.940;2022-11-20T06:55:31;-3.20;99.90
33594;DHT22;19920;52.242;20.940;2022-11-20T06:57:57;-3.10;99.90
33594;DHT22;19920;52.242;20.940;2022-11-20T07:00:23;-3.20;99.90
33594;DHT22;19920;52.242;20.940;2022-11-20T07:02:49;-3.10;99.90
33594;DHT22;19920;52.242;20.940;2022-11-20T07:05:15;-3.00;99.90
33594;DHT22;19920;52.242;20.940;2022-11-20T07:07:41;-2.90;99.90
33594;DHT22;19920;52.242;20.940;2022-11-20T07:10:08;-2.90;99.90
33594;DHT22;19920;52.242;20.940;2022-11-20T07:12:33;-2.90;99.90
33594;DHT22;19920;52.242;20.940;2022-11-20T07:14:59;-2.90;99.90
33594;DHT22;19920;52.242;20.940;2022-11-20T07:17:25;-3.00;99.90
33594;DHT22;19920;52.242;20.940;2022-11-20T07:19:50;-2.90;99.90
33594;DHT22;19920;52.242;20.940;2022-11-20T07:22:16;-2.90;99.90
33594;DHT22;19920;52.242;20.940;2022-11-20T07:24:42;-2.90;99.90
33594;DHT22;19920;52.242;20.940;2022-11-20T07:27:08;-2.80;99.90
33594;DHT22;19920;52.242;20.940;2022-11-20T07:29:33;-2.70;99.90
33594;DHT22;19920;52.242;20.940;2022-11-20T07:31:59;-2.70;99.90
33594;DHT22;19920;52.242;20.940;2022-11-20T07:34:26;-2.60;99.90
33594;DHT22;19920;52.242;20.940;2022-11-20T07:36:52;-2.60;99.90
33594;DHT22;19920;52.242;20.940;2022-11-20T07:39:17;-2.50;99.90
33594;DHT22;19920;52.242;20.940;2022-11-20T07:41:43;-2.50;99.90
33594;DHT22;19920;52.242;20.940;2022-11-20T07:44:09;-2.50;99.90
33594;DHT22;19920;52.242;20.940;2022-11-20T07:46:34;-2.50;99.90
33594;DHT22;19920;52.242;20.940;2022-11-20T07:49:00;-2.40;99.90
33594;DHT22;19920;52.242;20.940;2022-11-20T07:51:26;-2.40;99.90
33594;DHT22;19920;52.242;20.940;2022-11-20T07:53:52;-2.40;99.90
33594;DHT22;19920;52.242;20.940;2022-11-20T07:56:17;-2.40;99.90
33594;DHT22;19920;52.242;20.940;2022-11-20T07:58:43;-2.40;99.90
33594;DHT22;19920;52.242;20.940;2022-11-20T08:01:09;-2.40;99.90
33594;DHT22;19920;52.242;20.940;2022-11-20T08:03:35;-2.30;99.90
33594;DHT22;19920;52.242;20.940;2022-11-20T08:06:03;-2.40;99.90
33594;DHT22;19920;52.242;20.940;2022-11-20T08:08:29;-2.30;99.90
33594;DHT22;19920;52.242;20.940;2022-11-20T08:10:58;-2.20;99.90
33594;DHT22;19920;52.242;20.940;2022-11-20T08:13:42;-2.10;99.90
33594;DHT22;19920;52.242;20.940;2022-11-20T08:16:26;-2.00;99.90
33594;DHT22;19920;52.242;20.940;2022-11-20T08:18:52;-2.00;99.90
33594;DHT22;19920;52.242;20.940;2022-11-20T08:21:17;-2.00;99.90
33594;DHT22;19920;52.242;20.940;2022-11-20T08:23:43;-2.00;99.90
33594;DHT22;19920;52.242;20.940;2022-11-20T08:26:09;-1.90;99.90
33594;DHT22;19920;52.242;20.940;2022-11-20T08:28:34;-1.80;99.90
33594;DHT22;19920;52.242;20.940;2022-11-20T08:31:00;-1.80;99.90
33594;DHT22;19920;52.242;20.940;2022-11-20T08:33:27;-1.80;99.90
33594;DHT22;19920;52.242;20.940;2022-11-20T08:35:52;-1.70;99.90
33594;DHT22;19920;52.242;20.940;2022-11-20T08:38:18;-1.50;99.90
33594;DHT22;19920;52.242;20.940;2022-11-20T08:40:44;-1.50;99.90
33594;DHT22;19920;52.242;20.940;2022-11-20T08:43:29;-1.40;99.90
33594;DHT22;19920;52.242;20.940;2022-11-20T08:45:56;-1.20;99.90
33594;DHT22;19920;52.242;20.940;2022-11-20T08:48:22;-1.20;99.90
33594;DHT22;19920;52.242;20.940;2022-11-20T08:50:48;-1.00;99.90
33594;DHT22;19920;52.242;20.940;2022-11-20T08:53:13;-0.90;99.90
33594;DHT22;19920;52.242;20.940;2022-11-20T08:55:39;-1.00;99.90
33594;DHT22;19920;52.242;20.940;2022-11-20T08:58:06;-0.80;99.90
33594;DHT22;19920;52.242;20.940;2022-11-20T09:00:33;-0.80;99.90
33594;DHT22;19920;52.242;20.940;2022-11-20T09:02:59;-0.80;99.90
33594;DHT22;19920;52.242;20.940;2022-11-20T09:05:26;-0.70;99.90
33594;DHT22;19920;52.242;20.940;2022-11-20T09:07:55;-0.60;99.90
33594;DHT22;19920;52.242;20.940;2022-11-20T09:10:21;-0.40;99.90
33594;DHT22;19920;52.242;20.940;2022-11-20T09:12:49;-0.40;99.90
33594;DHT22;19920;52.242;20.940;2022-11-20T09:15:14;-0.40;99.90
33594;DHT22;19920;52.242;20.940;2022-11-20T09:17:40;-0.20;99.90
33594;DHT22;19920;52.242;20.940;2022-11-20T09:20:06;0.00;99.90
33594;DHT22;19920;52.242;20.940;2022-11-20T09:22:32;0.10;99.90
33594;DHT22;19920;52.242;20.940;2022-11-20T09:24:58;0.20;99.90
33594;DHT22;19920;52.242;20.940;2022-11-20T09:27:23;0.30;99.90
33594;DHT22;19920;52.242;20.940;2022-11-20T09:29:49;0.30;99.90
33594;DHT22;19920;52.242;20.940;2022-11-20T09:32:15;0.30;99.90
33594;DHT22;19920;52.242;20.940;2022-11-20T09:34:40;0.40;99.90
33594;DHT22;19920;52.242;20.940;2022-11-20T09:37:06;0.30;99.90
33594;DHT22;19920;52.242;20.940;2022-11-20T09:39:32;0.30;99.90
33594;DHT22;19920;52.242;20.940;2022-11-20T09:55:23;0.30;99.90
33594;DHT22;19920;52.242;20.940;2022-11-20T09:57:51;0.30;99.90
33594;DHT22;19920;52.242;20.940;2022-11-20T10:00:17;0.40;99.90
33594;DHT22;19920;52.242;20.940;2022-11-20T10:03:03;0.50;99.90
33594;DHT22;19920;52.242;20.940;2022-11-20T10:05:43;0.50;99.90
33594;DHT22;19920;52.242;20.940;2022-11-20T10:08:24;0.70;99.90
33594;DHT22;19920;52.242;20.940;2022-11-20T10:10:54;0.70;99.90
33594;DHT22;19920;52.242;20.940;2022-11-20T10:13:33;0.60;99.90
33594;DHT22;19920;52.242;20.940;2022-11-20T10:29:32;0.90;99.90
33594;DHT22;19920;52.242;20.940;2022-11-20T10:32:07;1.00;99.90
33594;DHT22;19920;52.242;20.940;2022-11-20T10:37:11;1.10;99.90
33594;DHT22;19920;52.242;20.940;2022-11-20T10:40:05;1.10;99.90
33594;DHT22;19920;52.242;20.940;2022-11-20T10:42:46;1.10;99.90
33594;DHT22;19920;52.242;20.940;2022-11-20T10:50:36;1.20;99.90
33594;DHT22;19920;52.242;20.940;2022-11-20T10:53:54;1.20;99.90
33594;DHT22;19920;52.242;20.940;2022-11-20T10:56:06;1.30;99.90
33594;DHT22;19920;52.242;20.940;2022-11-20T10:59:03;1.30;99.90
33594;DHT22;19920;52.242;20.940;2022-11-20T11:01:30;1.40;99.90
33594;DHT22;19920;52.242;20.940;2022-11-20T11:03:55;1.50;99.90
33594;DHT22;19920;52.242;20.940;2022-11-20T11:06:33;1.60;99.90
33594;DHT22;19920;52.242;20.940;2022-11-20T11:09:04;1.70;99.90
33594;DHT22;19920;52.242;20.940;2022-11-20T11:11:35;1.70;99.90
33594;DHT22;19920;52.242;20.940;2022-11-20T11:14:06;1.80;99.90
33594;DHT22;19920;52.242;20.940;2022-11-20T11:16:33;1.90;99.90
33594;DHT22;19920;52.242;20.940;2022-11-20T11:19:06;2.00;99.90
33594;DHT22;19920;52.242;20.940;2022-11-20T11:21:32;2.00;99.90
33594;DHT22;19920;52.242;20.940;2022-11-20T11:24:00;2.00;99.90
33594;DHT22;19920;52.242;20.940;2022-11-20T11:26:27;2.00;99.90
33594;DHT22;19920;52.242;20.940;2022-11-20T11:29:01;2.00;99.90
33594;DHT22;19920;52.242;20.940;2022-11-20T11:31:37;2.20;99.90
33594;DHT22;19920;52.242;20.940;2022-11-20T11:34:07;2.30;99.90
33594;DHT22;19920;52.242;20.940;2022-11-20T11:36:34;2.30;99.90
33594;DHT22;19920;52.242;20.940;2022-11-20T11:39:00;2.40;99.90
33594;DHT22;19920;52.242;20.940;2022-11-20T11:41:31;2.30;99.90
33594;DHT22;19920;52.242;20.940;2022-11-20T11:44:12;2.40;99.90
33594;DHT22;19920;52.242;20.940;2022-11-20T11:46:59;2.40;99.90
33594;DHT22;19920;52.242;20.940;2022-11-20T11:49:25;2.50;99.90
33594;DHT22;19920;52.242;20.940;2022-11-20T11:52:13;2.50;99.90
33594;DHT22;19920;52.242;20.940;2022-11-20T12:00:01;2.60;99.90
33594;DHT22;19920;52.242;20.940;2022-11-20T12:05:28;2.60;99.90
33594;DHT22;19920;52.242;20.940;2022-11-20T12:15:38;2.20;99.90
33594;DHT22;19920;52.242;20.940;2022-11-20T12:18:17;2.10;99.90
33594;DHT22;19920;52.242;20.940;2022-11-20T12:23:57;2.00;99.90
33594;DHT22;19920;52.242;20.940;2022-11-20T12:32:22;1.90;99.90
33594;DHT22;19920;52.242;20.940;2022-11-20T12:37:45;1.90;99.90
33594;DHT22;19920;52.242;20.940;2022-11-20T12:40:41;2.00;99.90
33594;DHT22;19920;52.242;20.940;2022-11-20T12:56:48;1.80;99.90
33594;DHT22;19920;52.242;20.940;2022-11-20T13:02:27;2.00;99.90
33594;DHT22;19920;52.242;20.940;2022-11-20T13:05:27;2.00;99.90
33594;DHT22;19920;52.242;20.940;2022-11-20T13:07:56;2.10;99.90
33594;DHT22;19920;52.242;20.940;2022-11-20T13:10:38;2.20;99.90
33594;DHT22;19920;52.242;20.940;2022-11-20T13:13:41;2.30;99.90
33594;DHT22;19920;52.242;20.940;2022-11-20T13:19:08;2.30;99.90
33594;DHT22;19920;52.242;20.940;2022-11-20T13:21:38;2.30;99.90
33594;DHT22;19920;52.242;20.940;2022-11-20T13:24:05;2.20;99.90
33594;DHT22;19920;52.242;20.940;2022-11-20T13:26:32;2.20;99.90
33594;DHT22;19920;52.242;20.940;2022-11-20T13:29:20;2.30;99.90
33594;DHT22;19920;52.242;20.940;2022-11-20T13:31:47;2.30;99.90
33594;DHT22;19920;52.242;20.940;2022-11-20T13:34:26;2.40;99.90
33594;DHT22;19920;52.242;20.940;2022-11-20T13:36:57;2.40;99.90
33594;DHT22;19920;52.242;20.940;2022-11-20T13:39:35;2.50;99.90
33594;DHT22;19920;52.242;20.940;2022-11-20T13:44:48;2.80;99.90
33594;DHT22;19920;52.242;20.940;2022-11-20T13:47:25;2.60;99.90
33594;DHT22;19920;52.242;20.940;2022-11-20T13:49:52;2.50;99.90
33594;DHT22;19920;52.242;20.940;2022-11-20T14:00:23;2.10;99.90
33594;DHT22;19920;52.242;20.940;2022-11-20T14:03:21;1.90;99.90
33594;DHT22;19920;52.242;20.940;2022-11-20T14:06:01;1.90;99.90
33594;DHT22;19920;52.242;20.940;2022-11-20T14:13:49;1.80;99.90
33594;DHT22;19920;52.242;20.940;2022-11-20T14:16:20;1.90;99.90
33594;DHT22;19920;52.242;20.940;2022-11-20T14:18:46;1.90;99.90
33594;DHT22;19920;52.242;20.940;2022-11-20T14:21:20;1.90;99.90
33594;DHT22;19920;52.242;20.940;2022-11-20T14:23:46;1.80;99.90
33594;DHT22;19920;52.242;20.940;2022-11-20T14:26:14;1.80;99.90
33594;DHT22;19920;52.242;20.940;2022-11-20T14:28:42;1.70;99.90
33594;DHT22;19920;52.242;20.940;2022-11-20T14:31:18;1.70;99.90
33594;DHT22;19920;52.242;20.940;2022-11-20T14:33:46;1.70;99.90
33594;DHT22;19920;52.242;20.940;2022-11-20T14:36:18;1.60;99.90
33594;DHT22;19920;52.242;20.940;2022-11-20T14:38:45;1.60;99.90
33594;DHT22;19920;52.242;20.940;2022-11-20T14:41:21;1.50;99.90
33594;DHT22;19920;52.242;20.940;2022-11-20T14:43:59;1.40;99.90
33594;DHT22;19920;52.242;20.940;2022-11-20T14:46:26;1.30;99.90
33594;DHT22;19920;52.242;20.940;2022-11-20T14:48:57;1.30;99.90
33594;DHT22;19920;52.242;20.940;2022-11-20T14:51:37;1.20;99.90
33594;DHT22;19920;52.242;20.940;2022-11-20T14:54:17;1.20;99.90
33594;DHT22;19920;52.242;20.940;2022-11-20T14:57:00;1.20;99.90
33594;DHT22;19920;52.242;20.940;2022-11-20T14:59:29;1.10;99.90
33594;DHT22;19920;52.242;20.940;2022-11-20T15:04:25;1.10;99.90
33594;DHT22;19920;52.242;20.940;2022-11-20T15:06:54;1.10;99.90
33594;DHT22;19920;52.242;20.940;2022-11-20T15:09:20;1.00;99.90
33594;DHT22;19920;52.242;20.940;2022-11-20T15:11:57;1.00;99.90
33594;DHT22;19920;52.242;20.940;2022-11-20T15:14:25;1.00;99.90
33594;DHT22;19920;52.242;20.940;2022-11-20T15:16:52;1.00;99.90
33594;DHT22;19920;52.242;20.940;2022-11-20T15:19:24;1.00;99.90
33594;DHT22;19920;52.242;20.940;2022-11-20T15:21:50;0.90;99.90
33594;DHT22;19920;52.242;20.940;2022-11-20T15:24:16;0.90;99.90
33594;DHT22;19920;52.242;20.940;2022-11-20T15:26:42;0.90;99.90
33594;DHT22;19920;52.242;20.940;2022-11-20T15:29:13;0.80;99.90
33594;DHT22;19920;52.242;20.940;2022-11-20T15:31:39;0.80;99.90
33594;DHT22;19920;52.242;20.940;2022-11-20T15:34:11;0.80;99.90
33594;DHT22;19920;52.242;20.940;2022-11-20T15:36:38;0.80;99.90
33594;DHT22;19920;52.242;20.940;2022-11-20T15:39:04;0.70;99.90
33594;DHT22;19920;52.242;20.940;2022-11-20T15:41:33;0.70;99.90
33594;DHT22;19920;52.242;20.940;2022-11-20T15:43:58;0.70;99.90
33594;DHT22;19920;52.242;20.940;2022-11-20T15:46:27;0.60;99.90
33594;DHT22;19920;52.242;20.940;2022-11-20T15:48:55;0.50;99.90
33594;DHT22;19920;52.242;20.940;2022-11-20T15:51:26;0.50;99.90
33594;DHT22;19920;52.242;20.940;2022-11-20T15:53:52;0.30;99.90
33594;DHT22;19920;52.242;20.940;2022-11-20T15:56:19;0.20;99.90
33594;DHT22;19920;52.242;20.940;2022-11-20T15:58:45;0.20;99.90
33594;DHT22;19920;52.242;20.940;2022-11-20T16:01:16;0.10;99.90
33594;DHT22;19920;52.242;20.940;2022-11-20T16:03:43;0.00;99.90
33594;DHT22;19920;52.242;20.940;2022-11-20T16:06:08;0.00;99.90
33594;DHT22;19920;52.242;20.940;2022-11-20T16:08:34;-0.10;99.90
33594;DHT22;19920;52.242;20.940;2022-11-20T16:11:00;-0.10;99.90
33594;DHT22;19920;52.242;20.940;2022-11-20T16:13:26;-0.20;99.90
33594;DHT22;19920;52.242;20.940;2022-11-20T16:16:23;-0.20;99.90
33594;DHT22;19920;52.242;20.940;2022-11-20T16:18:49;-0.30;99.90
33594;DHT22;19920;52.242;20.940;2022-11-20T16:21:15;-0.30;99.90
33594;DHT22;19920;52.242;20.940;2022-11-20T16:23:42;-0.30;99.90
33594;DHT22;19920;52.242;20.940;2022-11-20T16:26:15;-0.30;99.90
33594;DHT22;19920;52.242;20.940;2022-11-20T16:28:42;-0.30;99.90
33594;DHT22;19920;52.242;20.940;2022-11-20T16:31:18;-0.30;99.90
33594;DHT22;19920;52.242;20.940;2022-11-20T16:33:55;-0.40;99.90
33594;DHT22;19920;52.242;20.940;2022-11-20T16:36:22;-0.40;99.90
33594;DHT22;19920;52.242;20.940;2022-11-20T16:38:53;-0.50;99.90
33594;DHT22;19920;52.242;20.940;2022-11-20T16:41:19;-0.50;99.90
33594;DHT22;19920;52.242;20.940;2022-11-20T16:43:55;-0.50;99.90
33594;DHT22;19920;52.242;20.940;2022-11-20T16:46:29;-0.60;99.90
33594;DHT22;19920;52.242;20.940;2022-11-20T16:48:59;-0.60;99.90
33594;DHT22;19920;52.242;20.940;2022-11-20T16:51:27;-0.60;99.90
33594;DHT22;19920;52.242;20.940;2022-11-20T16:53:53;-0.60;99.90
33594;DHT22;19920;52.242;20.940;2022-11-20T16:56:26;-0.70;99.90
33594;DHT22;19920;52.242;20.940;2022-11-20T16:58:54;-0.60;99.90
33594;DHT22;19920;52.242;20.940;2022-11-20T17:01:21;-0.60;99.90
33594;DHT22;19920;52.242;20.940;2022-11-20T17:03:55;-0.50;99.90
33594;DHT22;19920;52.242;20.940;2022-11-20T17:06:23;-0.40;99.90
33594;DHT22;19920;52.242;20.940;2022-11-20T17:08:49;-0.40;99.90
33594;DHT22;19920;52.242;20.940;2022-11-20T17:11:17;-0.40;99.90
33594;DHT22;19920;52.242;20.940;2022-11-20T17:13:44;-0.30;99.90
33594;DHT22;19920;52.242;20.940;2022-11-20T17:16:12;-0.30;99.90
33594;DHT22;19920;52.242;20.940;2022-11-20T17:18:38;-0.20;99.90